sensor_id;sensor_type;location;lat;lon;timestamp;temperature;humidity
27890;DHT22;15238;49.082;9.102;2023-04-03T00:00:40;4.30;99.90
27890;DHT22;15238;49.082;9.102;2023-04-03T00:02:40;4.30;99.90
27890;DHT22;15238;49.082;9.102;2023-04-03T00:04:41;4.20;99.90
27890;DHT22;15238;49.082;9.102;2023-04-03T00:06:42;4.20;99.90
27890;DHT22;15238;49.082;9.102;2023-04-03T00:08:42;4.20;99.90
27890;DHT22;15238;49.082;9.102;2023-04-03T00:10:43;4.20;99.90
27890;DHT22;15238;49.082;9.102;2023-04-03T00:12:44;4.30;99.90
27890;DHT22;15238;49.082;9.102;2023-04-03T00:14:44;4.20;99.90
27890;DHT22;15238;49.082;9.102;2023-04-03T00:16:45;4.20;99.90
27890;DHT22;15238;49.082;9.102;2023-04-03T00:18:45;4.20;99.90
27890;DHT22;15238;49.082;9.102;2023-04-03T00:20:46;4.20;99.90
27890;DHT22;15238;49.082;9.102;2023-04-03T00:22:46;4.20;99.90
27890;DHT22;15238;49.082;9.102;2023-04-03T00:24:47;4.20;99.90
27890;DHT22;15238;49.082;9.102;2023-04-03T00:26:47;4.20;99.90
27890;DHT22;15238;49.082;9.102;2023-04-03T00:28:48;4.10;99.90
27890;DHT22;15238;49.082;9.102;2023-04-03T00:30:49;4.10;99.90
27890;DHT22;15238;49.082;9.102;2023-04-03T00:32:51;4.10;99.90
27890;DHT22;15238;49.082;9.102;2023-04-03T00:34:52;4.10;99.90
27890;DHT22;15238;49.082;9.102;2023-04-03T00:36:53;4.10;99.90
27890;DHT22;15238;49.082;9.102;2023-04-03T00:38:53;4.10;99.90
27890;DHT22;15238;49.082;9.102;2023-04-03T00:40:54;4.10;99.90
27890;DHT22;15238;49.082;9.102;2023-04-03T00:42:58;4.10;99.90
27890;DHT22;15238;49.082;9.102;2023-04-03T00:47:02;4.10;99.90
27890;DHT22;15238;49.082;9.102;2023-04-03T00:49:04;4.10;99.90
27890;DHT22;15238;49.082;9.102;2023-04-03T00:51:07;4.10;99.90
27890;DHT22;15238;49.082;9.102;2023-04-03T00:53:14;4.10;99.90
27890;DHT22;15238;49.082;9.102;2023-04-03T00:55:16;4.00;99.90
27890;DHT22;15238;49.082;9.102;2023-04-03T00:57:17;4.00;99.90
27890;DHT22;15238;49.082;9.102;2023-04-03T00:59:22;3.90;99.90
27890;DHT22;15238;49.082;9.102;2023-04-03T01:01:27;3.90;99.90
27890;DHT22;15238;49.082;9.102;2023-04-03T01:03:28;3.90;99.90
27890;DHT22;15238;49.082;9.102;2023-04-03T01:05:29;4.00;99.90
27890;DHT22;15238;49.082;9.102;2023-04-03T01:07:30;3.90;99.90
27890;DHT22;15238;49.082;9.102;2023-04-03T01:09:31;3.90;99.90
27890;DHT22;15238;49.082;9.102;2023-04-03T01:11:33;3.90;99.90
27890;DHT22;15238;49.082;9.102;2023-04-03T01:13:34;3.90;99.90
27890;DHT22;15238;49.082;9.102;2023-04-03T01:15:34;3.90;99.90
27890;DHT22;15238;49.082;9.102;2023-04-03T01:17:42;3.90;99.90
27890;DHT22;15238;49.082;9.102;2023-04-03T01:19:48;3.90;99.90
27890;DHT22;15238;49.082;9.102;2023-04-03T01:22:14;3.90;99.90
27890;DHT22;15238;49.082;9.102;2023-04-03T01:24:36;3.80;99.90
27890;DHT22;15238;49.082;9.102;2023-04-03T01:26:39;3.90;99.90
27890;DHT22;15238;49.082;9.102;2023-04-03T01:28:40;3.80;99.90
27890;DHT22;15238;49.082;9.102;2023-04-03T01:33:20;3.80;99.90
27890;DHT22;15238;49.082;9.102;2023-04-03T01:35:21;3.70;99.90
27890;DHT22;15238;49.082;9.102;2023-04-03T01:37:21;3.70;99.90
27890;DHT22;15238;49.082;9.102;2023-04-03T01:39:22;3.70;99.90
27890;DHT22;15238;49.082;9.102;2023-04-03T01:41:23;3.70;99.90
27890;DHT22;15238;49.082;9.102;2023-04-03T01:43:23;3.70;99.90
27890;DHT22;15238;49.082;9.102;2023-04-03T01:45:24;3.70;99.90
27890;DHT22;15238;49.082;9.102;2023-04-03T01:47:24;3.70;99.90
27890;DHT22;15238;49.082;9.102;2023-04-03T01:49:25;3.70;99.90
27890;DHT22;15238;49.082;9.102;2023-04-03T01:51:26;3.70;99.90
27890;DHT22;15238;49.082;9.102;2023-04-03T01:53:26;3.70;99.90
27890;DHT22;15238;49.082;9.102;2023-04-03T01:55:27;3.60;99.90
27890;DHT22;15238;49.082;9.102;2023-04-03T01:57:27;3.60;99.90
27890;DHT22;15238;49.082;9.102;2023-04-03T01:59:28;3.60;99.90
27890;DHT22;15238;49.082;9.102;2023-04-03T02:01:28;3.60;99.90
27890;DHT22;15238;49.082;9.102;2023-04-03T02:03:29;3.60;99.90
27890;DHT22;15238;49.082;9.102;2023-04-03T02:05:30;3.60;99.90
27890;DHT22;15238;49.082;9.102;2023-04-03T02:07:30;3.60;99.90
27890;DHT22;15238;49.082;9.102;2023-04-03T02:09:31;3.70;99.90
27890;DHT22;15238;49.082;9.102;2023-04-03T02:11:31;3.60;99.90
27890;DHT22;15238;49.082;9.102;2023-04-03T02:13:32;3.60;99.90
27890;DHT22;15238;49.082;9.102;2023-04-03T02:15:32;3.60;99.90
27890;DHT22;15238;49.082;9.102;2023-04-03T02:17:33;3.60;99.90
27890;DHT22;15238;49.082;9.102;2023-04-03T02:19:35;3.50;99.90
27890;DHT22;15238;49.082;9.102;2023-04-03T02:21:36;3.50;99.90
27890;DHT22;15238;49.082;9.102;2023-04-03T02:23:36;3.50;99.90
27890;DHT22;15238;49.082;9.102;2023-04-03T02:25:37;3.50;99.90
27890;DHT22;15238;49.082;9.102;2023-04-03T02:27:38;3.50;99.90
27890;DHT22;15238;49.082;9.102;2023-04-03T02:29:38;3.50;99.90
27890;DHT22;15238;49.082;9.102;2023-04-03T02:31:39;3.50;99.90
27890;DHT22;15238;49.082;9.102;2023-04-03T02:33:39;3.50;99.90
27890;DHT22;15238;49.082;9.102;2023-04-03T02:35:40;3.50;99.90
27890;DHT22;15238;49.082;9.102;2023-04-03T02:37:41;3.50;99.90
27890;DHT22;15238;49.082;9.102;2023-04-03T02:39:41;3.60;99.90
27890;DHT22;15238;49.082;9.102;2023-04-03T02:41:42;3.60;99.90
27890;DHT22;15238;49.082;9.102;2023-04-03T02:43:42;3.60;99.90
27890;DHT22;15238;49.082;9.102;2023-04-03T02:45:43;3.70;99.90
27890;DHT22;15238;49.082;9.102;2023-04-03T02:47:44;3.60;99.90
27890;DHT22;15238;49.082;9.102;2023-04-03T02:49:44;3.70;99.90
27890;DHT22;15238;49.082;9.102;2023-04-03T02:51:46;3.70;99.90
27890;DHT22;15238;49.082;9.102;2023-04-03T02:53:47;3.70;99.90
27890;DHT22;15238;49.082;9.102;2023-04-03T02:55:48;3.70;99.90
27890;DHT22;15238;49.082;9.102;2023-04-03T02:57:49;3.70;99.90
27890;DHT22;15238;49.082;9.102;2023-04-03T02:59:49;3.70;99.90
27890;DHT22;15238;49.082;9.102;2023-04-03T03:01:50;3.70;99.90
27890;DHT22;15238;49.082;9.102;2023-04-03T03:03:50;3.70;99.90
27890;DHT22;15238;49.082;9.102;2023-04-03T03:06:04;3.70;99.90
27890;DHT22;15238;49.082;9.102;2023-04-03T03:08:04;3.70;99.90
27890;DHT22;15238;49.082;9.102;2023-04-03T03:10:05;3.70;99.90
27890;DHT22;15238;49.082;9.102;2023-04-03T03:12:06;3.60;99.90
27890;DHT22;15238;49.082;9.102;2023-04-03T03:14:07;3.60;99.90
27890;DHT22;15238;49.082;9.102;2023-04-03T03:16:07;3.60;99.90
27890;DHT22;15238;49.082;9.102;2023-04-03T03:18:08;3.60;99.90
27890;DHT22;15238;49.082;9.102;2023-04-03T03:20:09;3.60;99.90
27890;DHT22;15238;49.082;9.102;2023-04-03T03:22:10;3.50;99.90
27890;DHT22;15238;49.082;9.102;2023-04-03T03:24:11;3.50;99.90
27890;DHT22;15238;49.082;9.102;2023-04-03T03:26:12;3.50;99.90
27890;DHT22;15238;49.082;9.102;2023-04-03T03:28:12;3.50;99.90
27890;DHT22;15238;49.082;9.102;2023-04-03T03:30:13;3.50;99.90
27890;DHT22;15238;49.082;9.102;2023-04-03T03:32:14;3.50;99.90
27890;DHT22;15238;49.082;9.102;2023-04-03T03:34:14;3.50;99.90
27890;DHT22;15238;49.082;9.102;2023-04-03T03:36:15;3.50;99.90
27890;DHT22;15238;49.082;9.102;2023-04-03T03:38:16;3.50;99.90
27890;DHT22;15238;49.082;9.102;2023-04-03T03:40:16;3.40;99.90
27890;DHT22;15238;49.082;9.102;2023-04-03T03:42:17;3.40;99.90
27890;DHT22;15238;49.082;9.102;2023-04-03T03:44:18;3.40;99.90
27890;DHT22;15238;49.082;9.102;2023-04-03T03:46:18;3.40;99.90
27890;DHT22;15238;49.082;9.102;2023-04-03T03:48:19;3.40;99.90
27890;DHT22;15238;49.082;9.102;2023-04-03T03:50:20;3.30;99.90
27890;DHT22;15238;49.082;9.102;2023-04-03T03:52:21;3.30;99.90
27890;DHT22;15238;49.082;9.102;2023-04-03T03:54:21;3.20;99.90
27890;DHT22;15238;49.082;9.102;2023-04-03T03:56:22;3.10;99.90
27890;DHT22;15238;49.082;9.102;2023-04-03T03:58:22;3.10;99.90
27890;DHT22;15238;49.082;9.102;2023-04-03T04:00:23;3.00;99.90
27890;DHT22;15238;49.082;9.102;2023-04-03T04:02:23;3.00;99.90
27890;DHT22;15238;49.082;9.102;2023-04-03T04:04:24;2.90;99.90
27890;DHT22;15238;49.082;9.102;2023-04-03T04:06:25;2.90;99.90
27890;DHT22;15238;49.082;9.102;2023-04-03T04:08:26;2.90;99.90
27890;DHT22;15238;49.082;9.102;2023-04-03T04:10:26;2.90;99.90
27890;DHT22;15238;49.082;9.102;2023-04-03T04:12:27;2.90;99.90
27890;DHT22;15238;49.082;9.102;2023-04-03T04:14:27;2.90;99.90
27890;DHT22;15238;49.082;9.102;2023-04-03T04:16:28;2.90;99.90
27890;DHT22;15238;49.082;9.102;2023-04-03T04:18:28;2.80;99.90
27890;DHT22;15238;49.082;9.102;2023-04-03T04:20:29;2.80;99.90
27890;DHT22;15238;49.082;9.102;2023-04-03T04:22:30;2.70;99.90
27890;DHT22;15238;49.082;9.102;2023-04-03T04:24:30;2.70;99.90
27890;DHT22;15238;49.082;9.102;2023-04-03T04:26:31;2.70;99.90
27890;DHT22;15238;49.082;9.102;2023-04-03T04:28:32;2.60;99.90
27890;DHT22;15238;49.082;9.102;2023-04-03T04:30:32;2.60;99.90
27890;DHT22;15238;49.082;9.102;2023-04-03T04:32:33;2.40;99.90
27890;DHT22;15238;49.082;9.102;2023-04-03T04:34:33;2.40;99.90
27890;DHT22;15238;49.082;9.102;2023-04-03T04:36:34;2.30;99.90
27890;DHT22;15238;49.082;9.102;2023-04-03T04:38:35;2.30;99.90
27890;DHT22;15238;49.082;9.102;2023-04-03T04:40:36;2.30;99.90
27890;DHT22;15238;49.082;9.102;2023-04-03T04:42:38;2.30;99.90
27890;DHT22;15238;49.082;9.102;2023-04-03T04:44:39;2.30;99.90
27890;DHT22;15238;49.082;9.102;2023-04-03T04:46:40;2.30;99.90
27890;DHT22;15238;49.082;9.102;2023-04-03T04:48:40;2.30;99.90
27890;DHT22;15238;49.082;9.102;2023-04-03T04:50:41;2.30;99.90
27890;DHT22;15238;49.082;9.102;2023-04-03T04:52:42;2.30;99.90
27890;DHT22;15238;49.082;9.102;2023-04-03T04:54:42;2.30;99.90
27890;DHT22;15238;49.082;9.102;2023-04-03T04:56:43;2.30;99.90
27890;DHT22;15238;49.082;9.102;2023-04-03T04:58:43;2.30;99.90
27890;DHT22;15238;49.082;9.102;2023-04-03T05:00:44;2.30;99.90
27890;DHT22;15238;49.082;9.102;2023-04-03T05:02:44;2.40;99.90
27890;DHT22;15238;49.082;9.102;2023-04-03T05:04:45;2.40;99.90
27890;DHT22;15238;49.082;9.102;2023-04-03T05:06:46;2.40;99.90
27890;DHT22;15238;49.082;9.102;2023-04-03T05:08:46;2.40;99.90
27890;DHT22;15238;49.082;9.102;2023-04-03T05:10:47;2.50;99.90
27890;DHT22;15238;49.082;9.102;2023-04-03T05:12:48;2.50;99.90
27890;DHT22;15238;49.082;9.102;2023-04-03T05:14:48;2.40;99.90
27890;DHT22;15238;49.082;9.102;2023-04-03T05:16:49;2.40;99.90
27890;DHT22;15238;49.082;9.102;2023-04-03T05:18:53;2.50;99.90
27890;DHT22;15238;49.082;9.102;2023-04-03T05:20:53;2.50;99.90
27890;DHT22;15238;49.082;9.102;2023-04-03T05:22:54;2.50;99.90
27890;DHT22;15238;49.082;9.102;2023-04-03T05:24:54;2.50;99.90
27890;DHT22;15238;49.082;9.102;2023-04-03T05:26:55;2.60;99.90
27890;DHT22;15238;49.082;9.102;2023-04-03T05:28:55;2.60;99.90
27890;DHT22;15238;49.082;9.102;2023-04-03T05:30:58;2.70;99.90
27890;DHT22;15238;49.082;9.102;2023-04-03T05:32:59;2.60;99.90
27890;DHT22;15238;49.082;9.102;2023-04-03T05:34:59;2.60;99.90
27890;DHT22;15238;49.082;9.102;2023-04-03T05:37:00;2.70;99.90
27890;DHT22;15238;49.082;9.102;2023-04-03T05:39:03;2.70;99.90
27890;DHT22;15238;49.082;9.102;2023-04-03T05:41:04;2.70;99.90
27890;DHT22;15238;49.082;9.102;2023-04-03T05:43:05;2.70;99.90
27890;DHT22;15238;49.082;9.102;2023-04-03T05:45:05;2.70;99.90
27890;DHT22;15238;49.082;9.102;2023-04-03T05:47:06;2.70;99.90
27890;DHT22;15238;49.082;9.102;2023-04-03T05:49:07;2.80;99.90
27890;DHT22;15238;49.082;9.102;2023-04-03T05:51:14;2.90;99.90
27890;DHT22;15238;49.082;9.102;2023-04-03T05:53:21;2.90;99.90
27890;DHT22;15238;49.082;9.102;2023-04-03T05:55:22;2.90;99.90
27890;DHT22;15238;49.082;9.102;2023-04-03T05:57:23;2.90;99.90
27890;DHT22;15238;49.082;9.102;2023-04-03T05:59:24;3.00;99.90
27890;DHT22;15238;49.082;9.102;2023-04-03T06:01:24;3.00;99.90
27890;DHT22;15238;49.082;9.102;2023-04-03T06:03:25;3.10;99.90
27890;DHT22;15238;49.082;9.102;2023-04-03T06:05:26;3.10;99.90
27890;DHT22;15238;49.082;9.102;2023-04-03T06:07:27;3.10;99.90
27890;DHT22;15238;49.082;9.102;2023-04-03T06:09:29;3.10;99.90
27890;DHT22;15238;49.082;9.102;2023-04-03T06:11:30;3.10;99.90
27890;DHT22;15238;49.082;9.102;2023-04-03T06:13:31;3.20;99.90
27890;DHT22;15238;49.082;9.102;2023-04-03T06:15:31;3.20;99.90
27890;DHT22;15238;49.082;9.102;2023-04-03T06:17:32;3.20;99.90
27890;DHT22;15238;49.082;9.102;2023-04-03T06:19:32;3.20;99.90
27890;DHT22;15238;49.082;9.102;2023-04-03T06:21:33;3.20;99.90
27890;DHT22;15238;49.082;9.102;2023-04-03T06:23:34;3.20;99.90
27890;DHT22;15238;49.082;9.102;2023-04-03T06:25:35;3.20;99.90
27890;DHT22;15238;49.082;9.102;2023-04-03T06:27:35;3.20;99.90
27890;DHT22;15238;49.082;9.102;2023-04-03T06:29:36;3.20;99.90
27890;DHT22;15238;49.082;9.102;2023-04-03T06:31:37;3.30;99.90
27890;DHT22;15238;49.082;9.102;2023-04-03T06:33:38;3.40;99.90
27890;DHT22;15238;49.082;9.102;2023-04-03T06:35:38;3.40;99.90
27890;DHT22;15238;49.082;9.102;2023-04-03T06:37:39;3.50;99.90
27890;DHT22;15238;49.082;9.102;2023-04-03T06:39:39;3.50;99.90
27890;DHT22;15238;49.082;9.102;2023-04-03T06:41:40;3.60;99.90
27890;DHT22;15238;49.082;9.102;2023-04-03T06:43:41;3.50;99.90
27890;DHT22;15238;49.082;9.102;2023-04-03T06:45:41;3.60;99.90
27890;DHT22;15238;49.082;9.102;2023-04-03T06:47:42;3.70;99.90
27890;DHT22;15238;49.082;9.102;2023-04-03T06:49:43;3.90;99.90
27890;DHT22;15238;49.082;9.102;2023-04-03T06:51:43;4.00;99.90
27890;DHT22;15238;49.082;9.102;2023-04-03T06:53:44;4.00;99.90
27890;DHT22;15238;49.082;9.102;2023-04-03T06:55:46;4.00;99.90
27890;DHT22;15238;49.082;9.102;2023-04-03T06:57:47;4.10;99.90
27890;DHT22;15238;49.082;9.102;2023-04-03T06:59:48;4.20;99.90
27890;DHT22;15238;49.082;9.102;2023-04-03T07:01:48;4.40;99.90
27890;DHT22;15238;49.082;9.102;2023-04-03T07:03:49;4.40;99.90
27890;DHT22;15238;49.082;9.102;2023-04-03T07:05:50;4.50;99.90
27890;DHT22;15238;49.082;9.102;2023-04-03T07:07:51;4.60;99.90
27890;DHT22;15238;49.082;9.102;2023-04-03T07:09:51;4.50;99.90
27890;DHT22;15238;49.082;9.102;2023-04-03T07:11:52;4.70;99.90
27890;DHT22;15238;49.082;9.102;2023-04-03T07:13:52;4.80;99.90
27890;DHT22;15238;49.082;9.102;2023-04-03T07:15:53;4.70;99.90
27890;DHT22;15238;49.082;9.102;2023-04-03T07:17:54;4.70;99.90
27890;DHT22;15238;49.082;9.102;2023-04-03T07:19:55;4.70;99.90
27890;DHT22;15238;49.082;9.102;2023-04-03T07:21:56;4.70;99.90
27890;DHT22;15238;49.082;9.102;2023-04-03T07:23:57;4.80;99.90
27890;DHT22;15238;49.082;9.102;2023-04-03T07:25:57;4.90;99.90
27890;DHT22;15238;49.082;9.102;2023-04-03T07:27:58;4.80;99.90
27890;DHT22;15238;49.082;9.102;2023-04-03T07:29:58;4.90;99.90
27890;DHT22;15238;49.082;9.102;2023-04-03T07:31:59;5.00;99.90
27890;DHT22;15238;49.082;9.102;2023-04-03T07:33:59;5.20;99.90
27890;DHT22;15238;49.082;9.102;2023-04-03T07:36:00;5.30;99.90
27890;DHT22;15238;49.082;9.102;2023-04-03T07:38:01;5.40;99.90
27890;DHT22;15238;49.082;9.102;2023-04-03T07:40:02;5.40;99.90
27890;DHT22;15238;49.082;9.102;2023-04-03T07:42:04;5.60;99.90
27890;DHT22;15238;49.082;9.102;2023-04-03T07:44:04;5.60;99.90
27890;DHT22;15238;49.082;9.102;2023-04-03T07:46:05;5.90;99.90
27890;DHT22;15238;49.082;9.102;2023-04-03T07:48:06;5.90;99.90
27890;DHT22;15238;49.082;9.102;2023-04-03T07:50:07;5.80;99.90
27890;DHT22;15238;49.082;9.102;2023-04-03T07:52:08;5.80;99.90
27890;DHT22;15238;49.082;9.102;2023-04-03T07:54:09;5.80;99.90
27890;DHT22;15238;49.082;9.102;2023-04-03T07:56:10;5.80;99.90
27890;DHT22;15238;49.082;9.102;2023-04-03T07:58:12;5.70;99.90
27890;DHT22;15238;49.082;9.102;2023-04-03T08:00:13;5.60;99.90
27890;DHT22;15238;49.082;9.102;2023-04-03T08:02:14;5.50;99.90
27890;DHT22;15238;49.082;9.102;2023-04-03T08:04:14;5.60;99.90
27890;DHT22;15238;49.082;9.102;2023-04-03T08:06:15;5.60;99.90
27890;DHT22;15238;49.082;9.102;2023-04-03T08:08:18;5.40;99.90
27890;DHT22;15238;49.082;9.102;2023-04-03T08:10:19;5.30;99.90
27890;DHT22;15238;49.082;9.102;2023-04-03T08:12:19;5.40;99.90
27890;DHT22;15238;49.082;9.102;2023-04-03T08:14:20;5.40;99.90
27890;DHT22;15238;49.082;9.102;2023-04-03T08:16:22;5.40;99.90
27890;DHT22;15238;49.082;9.102;2023-04-03T08:18:26;5.50;99.90
27890;DHT22;15238;49.082;9.102;2023-04-03T08:20:27;5.60;99.90
27890;DHT22;15238;49.082;9.102;2023-04-03T08:22:29;5.50;99.90
27890;DHT22;15238;49.082;9.102;2023-04-03T08:24:29;5.60;99.90
27890;DHT22;15238;49.082;9.102;2023-04-03T08:26:30;5.70;99.90
27890;DHT22;15238;49.082;9.102;2023-04-03T08:28:31;5.70;99.90
27890;DHT22;15238;49.082;9.102;2023-04-03T08:30:31;5.80;99.90
27890;DHT22;15238;49.082;9.102;2023-04-03T08:32:34;5.70;99.90
27890;DHT22;15238;49.082;9.102;2023-04-03T08:34:35;5.60;99.90
27890;DHT22;15238;49.082;9.102;2023-04-03T08:36:37;5.60;99.90
27890;DHT22;15238;49.082;9.102;2023-04-03T08:38:37;5.70;99.90
27890;DHT22;15238;49.082;9.102;2023-04-03T08:40:39;5.90;99.90
27890;DHT22;15238;49.082;9.102;2023-04-03T08:47:40;6.00;99.90
27890;DHT22;15238;49.082;9.102;2023-04-03T08:49:57;6.00;99.90
27890;DHT22;15238;49.082;9.102;2023-04-03T08:52:03;6.10;99.90
27890;DHT22;15238;49.082;9.102;2023-04-03T08:54:21;6.20;99.90
27890;DHT22;15238;49.082;9.102;2023-04-03T08:56:25;6.40;99.90
27890;DHT22;15238;49.082;9.102;2023-04-03T08:58:30;6.50;99.90
27890;DHT22;15238;49.082;9.102;2023-04-03T09:02:47;6.30;99.90
27890;DHT22;15238;49.082;9.102;2023-04-03T09:04:48;6.30;99.90
27890;DHT22;15238;49.082;9.102;2023-04-03T09:06:53;6.50;99.90
27890;DHT22;15238;49.082;9.102;2023-04-03T09:09:15;6.70;99.90
27890;DHT22;15238;49.082;9.102;2023-04-03T09:11:34;6.80;99.90
27890;DHT22;15238;49.082;9.102;2023-04-03T09:13:53;6.80;99.90
27890;DHT22;15238;49.082;9.102;2023-04-03T09:15:56;6.90;99.90
27890;DHT22;15238;49.082;9.102;2023-04-03T09:18:09;6.90;99.90
27890;DHT22;15238;49.082;9.102;2023-04-03T09:22:28;6.50;99.90
27890;DHT22;15238;49.082;9.102;2023-04-03T09:24:32;6.40;99.90
27890;DHT22;15238;49.082;9.102;2023-04-03T09:28:59;6.50;99.90
27890;DHT22;15238;49.082;9.102;2023-04-03T09:31:03;6.70;99.90
27890;DHT22;15238;49.082;9.102;2023-04-03T09:33:07;6.90;99.90
27890;DHT22;15238;49.082;9.102;2023-04-03T09:35:30;7.00;99.90
27890;DHT22;15238;49.082;9.102;2023-04-03T09:37:40;7.10;99.90
27890;DHT22;15238;49.082;9.102;2023-04-03T09:39:53;7.00;99.90
27890;DHT22;15238;49.082;9.102;2023-04-03T09:42:11;7.00;99.90
27890;DHT22;15238;49.082;9.102;2023-04-03T09:44:24;7.10;99.90
27890;DHT22;15238;49.082;9.102;2023-04-03T09:46:28;7.00;99.90
27890;DHT22;15238;49.082;9.102;2023-04-03T09:48:29;6.80;99.90
27890;DHT22;15238;49.082;9.102;2023-04-03T09:50:30;6.30;99.90
27890;DHT22;15238;49.082;9.102;2023-04-03T09:52:32;6.40;99.90
27890;DHT22;15238;49.082;9.102;2023-04-03T09:54:37;6.40;99.90
27890;DHT22;15238;49.082;9.102;2023-04-03T09:56:38;6.40;99.90
27890;DHT22;15238;49.082;9.102;2023-04-03T09:58:40;6.40;99.90
27890;DHT22;15238;49.082;9.102;2023-04-03T10:00:42;6.40;99.90
27890;DHT22;15238;49.082;9.102;2023-04-03T10:02:43;6.40;99.90
27890;DHT22;15238;49.082;9.102;2023-04-03T10:04:43;6.60;99.90
27890;DHT22;15238;49.082;9.102;2023-04-03T10:06:52;6.70;99.90
27890;DHT22;15238;49.082;9.102;2023-04-03T10:09:01;6.90;99.90
27890;DHT22;15238;49.082;9.102;2023-04-03T10:11:15;6.80;99.90
27890;DHT22;15238;49.082;9.102;2023-04-03T10:13:18;6.80;99.90
27890;DHT22;15238;49.082;9.102;2023-04-03T10:15:21;6.90;99.90
27890;DHT22;15238;49.082;9.102;2023-04-03T10:17:32;6.90;99.90
27890;DHT22;15238;49.082;9.102;2023-04-03T10:19:52;6.90;99.90
27890;DHT22;15238;49.082;9.102;2023-04-03T10:22:06;6.90;99.90
27890;DHT22;15238;49.082;9.102;2023-04-03T10:24:21;6.80;99.90
27890;DHT22;15238;49.082;9.102;2023-04-03T10:26:39;6.80;99.90
27890;DHT22;15238;49.082;9.102;2023-04-03T10:28:57;6.70;99.90
27890;DHT22;15238;49.082;9.102;2023-04-03T10:31:17;6.70;99.90
27890;DHT22;15238;49.082;9.102;2023-04-03T10:33:31;6.70;99.90
27890;DHT22;15238;49.082;9.102;2023-04-03T10:40:23;6.90;99.90
27890;DHT22;15238;49.082;9.102;2023-04-03T10:42:42;6.90;99.90
27890;DHT22;15238;49.082;9.102;2023-04-03T10:48:01;6.80;99.90
27890;DHT22;15238;49.082;9.102;2023-04-03T10:52:30;6.70;99.90
27890;DHT22;15238;49.082;9.102;2023-04-03T10:54:38;6.90;99.90
27890;DHT22;15238;49.082;9.102;2023-04-03T10:58:58;7.10;99.90
27890;DHT22;15238;49.082;9.102;2023-04-03T11:01:07;7.00;99.90
27890;DHT22;15238;49.082;9.102;2023-04-03T11:03:16;6.90;99.90
27890;DHT22;15238;49.082;9.102;2023-04-03T11:05:36;6.80;99.90
27890;DHT22;15238;49.082;9.102;2023-04-03T11:07:39;6.90;99.90
27890;DHT22;15238;49.082;9.102;2023-04-03T11:09:44;6.90;99.90
27890;DHT22;15238;49.082;9.102;2023-04-03T11:11:47;6.90;99.90
27890;DHT22;15238;49.082;9.102;2023-04-03T11:14:00;7.00;99.90
27890;DHT22;15238;49.082;9.102;2023-04-03T11:16:02;7.10;99.90
27890;DHT22;15238;49.082;9.102;2023-04-03T11:18:12;7.00;99.90
27890;DHT22;15238;49.082;9.102;2023-04-03T11:24:31;6.70;99.90
27890;DHT22;15238;49.082;9.102;2023-04-03T11:26:37;6.70;99.90
27890;DHT22;15238;49.082;9.102;2023-04-03T11:28:39;6.60;99.90
27890;DHT22;15238;49.082;9.102;2023-04-03T11:32:52;6.70;99.90
27890;DHT22;15238;49.082;9.102;2023-04-03T11:34:56;6.60;99.90
27890;DHT22;15238;49.082;9.102;2023-04-03T11:37:00;6.60;99.90
27890;DHT22;15238;49.082;9.102;2023-04-03T11:39:17;6.60;99.90
27890;DHT22;15238;49.082;9.102;2023-04-03T11:41:27;6.70;99.90
27890;DHT22;15238;49.082;9.102;2023-04-03T11:43:30;6.70;99.90
27890;DHT22;15238;49.082;9.102;2023-04-03T11:45:37;6.70;99.90
27890;DHT22;15238;49.082;9.102;2023-04-03T11:47:46;6.70;99.90
27890;DHT22;15238;49.082;9.102;2023-04-03T11:50:04;6.70;99.90
27890;DHT22;15238;49.082;9.102;2023-04-03T11:52:10;6.90;99.90
27890;DHT22;15238;49.082;9.102;2023-04-03T11:54:46;7.10;99.90
27890;DHT22;15238;49.082;9.102;2023-04-03T11:56:46;7.20;98.50
27890;DHT22;15238;49.082;9.102;2023-04-03T12:05:49;7.60;97.90
27890;DHT22;15238;49.082;9.102;2023-04-03T12:08:15;7.40;99.90
27890;DHT22;15238;49.082;9.102;2023-04-03T12:10:17;7.30;99.60
27890;DHT22;15238;49.082;9.102;2023-04-03T12:12:37;7.10;99.50
27890;DHT22;15238;49.082;9.102;2023-04-03T12:14:38;6.90;99.50
27890;DHT22;15238;49.082;9.102;2023-04-03T12:26:00;7.00;99.00
27890;DHT22;15238;49.082;9.102;2023-04-03T12:28:00;7.10;97.50
27890;DHT22;15238;49.082;9.102;2023-04-03T12:34:51;7.40;96.30
27890;DHT22;15238;49.082;9.102;2023-04-03T12:39:42;7.80;95.80
27890;DHT22;15238;49.082;9.102;2023-04-03T12:41:58;7.80;95.60
27890;DHT22;15238;49.082;9.102;2023-04-03T12:44:26;7.80;97.20
27890;DHT22;15238;49.082;9.102;2023-04-03T12:46:48;7.80;96.80
27890;DHT22;15238;49.082;9.102;2023-04-03T12:48:51;7.70;96.70
27890;DHT22;15238;49.082;9.102;2023-04-03T12:50:54;7.60;97.30
27890;DHT22;15238;49.082;9.102;2023-04-03T12:53:11;7.40;97.40
27890;DHT22;15238;49.082;9.102;2023-04-03T12:55:20;7.40;98.90
27890;DHT22;15238;49.082;9.102;2023-04-03T12:57:24;7.50;98.90
27890;DHT22;15238;49.082;9.102;2023-04-03T12:59:26;7.60;98.70
27890;DHT22;15238;49.082;9.102;2023-04-03T13:01:27;7.70;96.70
27890;DHT22;15238;49.082;9.102;2023-04-03T13:03:28;7.70;95.50
27890;DHT22;15238;49.082;9.102;2023-04-03T13:05:29;7.80;96.10
27890;DHT22;15238;49.082;9.102;2023-04-03T13:07:33;7.80;95.20
27890;DHT22;15238;49.082;9.102;2023-04-03T13:09:34;7.80;94.90
27890;DHT22;15238;49.082;9.102;2023-04-03T13:11:39;7.70;95.10
27890;DHT22;15238;49.082;9.102;2023-04-03T13:13:57;7.60;94.60
27890;DHT22;15238;49.082;9.102;2023-04-03T13:15:59;7.70;94.90
27890;DHT22;15238;49.082;9.102;2023-04-03T13:18:00;7.80;95.40
27890;DHT22;15238;49.082;9.102;2023-04-03T13:20:12;7.80;96.10
27890;DHT22;15238;49.082;9.102;2023-04-03T13:22:33;7.80;96.50
27890;DHT22;15238;49.082;9.102;2023-04-03T13:24:39;7.80;98.90
27890;DHT22;15238;49.082;9.102;2023-04-03T13:26:40;8.00;97.10
27890;DHT22;15238;49.082;9.102;2023-04-03T13:28:41;8.10;96.60
27890;DHT22;15238;49.082;9.102;2023-04-03T13:30:56;8.20;96.40
27890;DHT22;15238;49.082;9.102;2023-04-03T13:33:00;8.20;95.60
27890;DHT22;15238;49.082;9.102;2023-04-03T13:35:01;8.20;97.10
27890;DHT22;15238;49.082;9.102;2023-04-03T13:37:05;8.20;95.90
27890;DHT22;15238;49.082;9.102;2023-04-03T13:39:25;8.10;94.20
27890;DHT22;15238;49.082;9.102;2023-04-03T13:41:40;8.00;95.10
27890;DHT22;15238;49.082;9.102;2023-04-03T13:43:41;7.80;96.10
27890;DHT22;15238;49.082;9.102;2023-04-03T13:45:54;7.80;95.80
27890;DHT22;15238;49.082;9.102;2023-04-03T13:48:18;7.80;93.40
27890;DHT22;15238;49.082;9.102;2023-04-03T13:50:22;7.70;93.70
27890;DHT22;15238;49.082;9.102;2023-04-03T13:52:30;7.60;94.30
27890;DHT22;15238;49.082;9.102;2023-04-03T13:54:36;7.60;94.10
27890;DHT22;15238;49.082;9.102;2023-04-03T13:56:39;7.50;93.90
27890;DHT22;15238;49.082;9.102;2023-04-03T13:58:57;7.40;93.00
27890;DHT22;15238;49.082;9.102;2023-04-03T14:01:25;7.50;93.30
27890;DHT22;15238;49.082;9.102;2023-04-03T14:03:52;7.70;95.50
27890;DHT22;15238;49.082;9.102;2023-04-03T14:05:53;7.90;94.00
27890;DHT22;15238;49.082;9.102;2023-04-03T14:07:55;8.10;93.10
27890;DHT22;15238;49.082;9.102;2023-04-03T14:09:55;8.40;92.80
27890;DHT22;15238;49.082;9.102;2023-04-03T14:12:04;8.50;90.90